Time;durP1;ratioP1;P1;durP2;ratioP2;P2;SDS_P1;SDS_P2;PMS_P1;PMS_P2;Temp;Humidity;BMP_temperature;BMP_pressure;BME280_temperature;BME280_humidity;BME280_pressure;Samples;Min_cycle;Max_cycle;Signal;HPM_P1;HPM_P2
2021/06/03 00:00:27;;;;;;;65.78;60.50;;;12.80;99.90;;;;;;5013375;28;20065;-52
2021/06/03 00:02:55;;;;;;;62.50;57.93;;;12.70;99.90;;;;;;5013551;28;20030;-49
2021/06/03 00:05:27;;;;;;;56.47;51.95;;;12.70;99.90;;;;;;5013519;28;20279;-51
2021/06/03 00:07:55;;;;;;;55.22;50.85;;;12.70;99.90;;;;;;5013479;28;20430;-48
2021/06/03 00:10:33;;;;;;;58.10;52.70;;;12.60;99.90;;;;;;5013471;28;20030;-52
2021/06/03 00:13:01;;;;;;;53.65;49.15;;;12.60;99.90;;;;;;5013341;28;20100;-53
2021/06/03 00:15:29;;;;;;;63.15;57.40;;;12.50;99.90;;;;;;5013330;28;20047;-51
2021/06/03 00:17:58;;;;;;;67.57;61.90;;;12.50;99.90;;;;;;5013369;28;20062;-51
2021/06/03 00:20:29;;;;;;;69.35;63.75;;;12.50;99.90;;;;;;5013226;28;20113;-53
2021/06/03 00:22:57;;;;;;;67.65;61.72;;;12.40;99.90;;;;;;5013188;28;20036;-52
2021/06/03 00:25:24;;;;;;;66.22;60.85;;;12.40;99.90;;;;;;5013166;28;20072;-54
2021/06/03 00:27:52;;;;;;;62.95;57.40;;;12.30;99.90;;;;;;5013386;28;20371;-50
2021/06/03 00:30:20;;;;;;;62.53;57.38;;;12.20;99.90;;;;;;5013118;28;20084;-55
2021/06/03 00:32:50;;;;;;;63.92;58.63;;;12.20;99.90;;;;;;5013215;28;20025;-49
2021/06/03 00:35:19;;;;;;;62.35;57.03;;;12.20;99.90;;;;;;5013145;28;20092;-52
2021/06/03 00:37:48;;;;;;;61.55;56.38;;;12.20;99.90;;;;;;5012937;28;20026;-55
2021/06/03 00:40:20;;;;;;;63.55;57.97;;;12.20;99.90;;;;;;5013325;28;20053;-53
2021/06/03 00:42:48;;;;;;;63.58;57.83;;;12.20;99.90;;;;;;5013244;28;20056;-52
2021/06/03 00:45:20;;;;;;;60.45;55.25;;;12.20;99.90;;;;;;5012953;28;20033;-53
2021/06/03 00:47:48;;;;;;;60.05;54.20;;;12.20;99.90;;;;;;5013312;28;20033;-54
2021/06/03 00:50:27;;;;;;;63.22;57.78;;;12.10;99.90;;;;;;5012973;28;20021;-55
2021/06/03 00:52:55;;;;;;;64.85;59.33;;;12.10;99.90;;;;;;5013131;28;20053;-53
2021/06/03 00:55:23;;;;;;;62.85;56.85;;;12.20;99.90;;;;;;5013047;28;20052;-49
2021/06/03 00:57:50;;;;;;;57.25;51.70;;;12.20;99.90;;;;;;5012913;28;20072;-53
2021/06/03 01:00:18;;;;;;;66.88;61.17;;;12.20;99.90;;;;;;5012741;28;20049;-50
2021/06/03 01:02:46;;;;;;;66.25;60.28;;;12.30;99.90;;;;;;5013061;28;20029;-51
2021/06/03 01:05:26;;;;;;;65.75;60.13;;;12.40;99.90;;;;;;5012815;28;20053;-54
2021/06/03 01:07:56;;;;;;;65.43;59.90;;;12.40;99.90;;;;;;5016365;28;20018;-49
2021/06/03 01:11:00;;;;;;;58.55;53.65;;;12.60;99.90;;;;;;5016410;28;20033;-49
2021/06/03 01:13:42;;;;;;;62.78;57.40;;;12.70;99.90;;;;;;5007181;28;20022;-50
2021/06/03 01:16:12;;;;;;;69.07;63.40;;;12.70;99.90;;;;;;5016511;28;20030;-52
2021/06/03 01:18:41;;;;;;;70.70;64.93;;;12.70;99.90;;;;;;5016354;28;20026;-50
2021/06/03 01:21:43;;;;;;;72.32;66.50;;;12.70;99.90;;;;;;5016330;28;20060;-49
2021/06/03 01:24:32;;;;;;;68.78;63.20;;;12.70;99.90;;;;;;5015933;28;20076;-45
2021/06/03 01:27:06;;;;;;;59.35;54.40;;;12.80;99.90;;;;;;5016221;28;20102;-52
2021/06/03 01:29:45;;;;;;;62.90;57.78;;;12.80;99.90;;;;;;5016270;28;20026;-50
2021/06/03 01:32:13;;;;;;;65.55;60.35;;;12.70;99.90;;;;;;5016184;28;20049;-51
2021/06/03 01:34:41;;;;;;;64.68;59.38;;;12.70;99.90;;;;;;5016151;28;20453;-51
2021/06/03 01:37:09;;;;;;;64.78;59.67;;;12.70;99.90;;;;;;5016134;28;20030;-48
2021/06/03 01:39:37;;;;;;;65.65;60.60;;;12.70;99.90;;;;;;5015962;28;20026;-49
2021/06/03 01:42:06;;;;;;;65.10;59.58;;;12.80;99.90;;;;;;5016014;28;20022;-45
2021/06/03 01:44:34;;;;;;;67.40;61.90;;;12.80;99.90;;;;;;5015834;28;20033;-47
2021/06/03 01:47:04;;;;;;;73.50;67.68;;;12.90;99.90;;;;;;5015812;28;20479;-50
2021/06/03 01:49:32;;;;;;;72.00;66.57;;;12.90;99.90;;;;;;5015901;28;20018;-50
2021/06/03 01:52:00;;;;;;;71.72;66.25;;;12.90;99.90;;;;;;5015895;28;20449;-48
2021/06/03 01:54:31;;;;;;;68.90;63.20;;;12.80;99.90;;;;;;5015793;28;20032;-48
2021/06/03 01:56:59;;;;;;;64.97;59.65;;;12.90;99.90;;;;;;5015845;28;20114;-53
2021/06/03 01:59:27;;;;;;;70.28;64.65;;;12.90;99.90;;;;;;5015544;28;20562;-49
2021/06/03 02:01:54;;;;;;;69.68;63.78;;;12.90;99.90;;;;;;5015705;28;20026;-48
2021/06/03 02:04:22;;;;;;;67.35;61.95;;;13.00;99.90;;;;;;5015325;28;20026;-52
2021/06/03 02:06:49;;;;;;;65.35;60.05;;;13.10;99.90;;;;;;5015543;28;20022;-52
2021/06/03 02:09:16;;;;;;;63.00;57.78;;;13.20;99.90;;;;;;5015491;28;20033;-53
2021/06/03 02:11:47;;;;;;;63.53;58.15;;;13.30;99.90;;;;;;5015250;28;20402;-47
2021/06/03 02:14:21;;;;;;;68.63;63.10;;;13.40;99.90;;;;;;5015664;28;20022;-49
2021/06/03 02:16:54;;;;;;;65.35;59.83;;;13.50;99.90;;;;;;5015161;28;20442;-51
2021/06/03 02:19:37;;;;;;;66.90;61.60;;;13.60;99.90;;;;;;5015219;28;20044;-47
2021/06/03 02:22:06;;;;;;;68.38;62.78;;;13.60;99.90;;;;;;5015188;28;20021;-53
2021/06/03 02:24:34;;;;;;;66.03;60.50;;;13.60;99.90;;;;;;5014967;28;20394;-47
2021/06/03 02:27:02;;;;;;;68.53;63.03;;;13.60;99.90;;;;;;5015318;28;20104;-47
2021/06/03 02:29:30;;;;;;;62.53;57.08;;;13.70;99.90;;;;;;5015202;28;20022;-49
2021/06/03 02:31:59;;;;;;;60.00;54.65;;;13.60;99.90;;;;;;5015144;28;20022;-50
2021/06/03 02:34:26;;;;;;;60.22;54.92;;;13.60;99.90;;;;;;5014900;28;20038;-51
2021/06/03 02:36:54;;;;;;;77.28;70.97;;;13.60;99.90;;;;;;5015126;28;20117;-53
2021/06/03 02:39:21;;;;;;;69.63;64.15;;;13.60;99.90;;;;;;5014756;28;20486;-51
2021/06/03 02:41:50;;;;;;;74.15;68.47;;;13.60;99.90;;;;;;5014916;28;20475;-51
2021/06/03 02:44:17;;;;;;;72.82;66.82;;;13.60;99.90;;;;;;5014754;28;20025;-49
2021/06/03 02:46:45;;;;;;;68.70;62.65;;;13.50;99.90;;;;;;5014582;28;20032;-50
2021/06/03 02:49:12;;;;;;;66.75;61.17;;;13.60;99.90;;;;;;5014811;28;20053;-53
2021/06/03 02:51:39;;;;;;;64.22;59.00;;;13.60;99.90;;;;;;5014673;28;20033;-49
2021/06/03 02:54:07;;;;;;;63.92;58.67;;;13.70;99.90;;;;;;5014631;28;20018;-49
2021/06/03 02:56:34;;;;;;;63.95;58.78;;;13.60;99.90;;;;;;5014706;28;20021;-45
2021/06/03 02:59:02;;;;;;;64.57;59.25;;;13.60;99.90;;;;;;5014540;28;20054;-47
2021/06/03 03:01:29;;;;;;;64.55;58.80;;;13.70;99.90;;;;;;5014698;28;20026;-48
2021/06/03 03:03:56;;;;;;;64.05;58.45;;;13.80;99.90;;;;;;5014513;28;20076;-48
2021/06/03 03:06:24;;;;;;;66.15;60.33;;;13.80;99.90;;;;;;5014426;28;20026;-52
2021/06/03 03:08:51;;;;;;;65.53;60.13;;;13.80;99.90;;;;;;5014395;28;20045;-46
2021/06/03 03:11:18;;;;;;;62.10;56.83;;;13.70;99.90;;;;;;5014374;28;20048;-52
2021/06/03 03:13:46;;;;;;;63.42;58.13;;;13.70;99.90;;;;;;5014304;28;20026;-52
2021/06/03 03:16:13;;;;;;;67.63;62.22;;;13.60;99.90;;;;;;5014175;28;20022;-49
2021/06/03 03:18:40;;;;;;;69.25;63.33;;;13.50;99.90;;;;;;5014214;28;20099;-48
2021/06/03 03:21:08;;;;;;;66.85;61.28;;;13.50;99.90;;;;;;5014187;28;20089;-48
2021/06/03 03:23:35;;;;;;;66.53;60.95;;;13.50;99.90;;;;;;5014222;28;20475;-52
2021/06/03 03:26:03;;;;;;;71.13;65.53;;;13.40;99.90;;;;;;5013875;28;20026;-52
2021/06/03 03:28:30;;;;;;;74.15;68.10;;;13.40;99.90;;;;;;5013815;28;20021;-50
2021/06/03 03:30:58;;;;;;;67.68;62.08;;;13.40;99.90;;;;;;5013613;28;20033;-48
2021/06/03 03:33:25;;;;;;;67.30;61.55;;;13.30;99.90;;;;;;5013757;28;20030;-49
2021/06/03 03:35:53;;;;;;;70.85;64.63;;;13.30;99.90;;;;;;5013775;28;20040;-49
2021/06/03 03:38:22;;;;;;;68.82;63.05;;;13.30;99.90;;;;;;5013884;28;20030;-51
2021/06/03 03:40:51;;;;;;;68.45;62.47;;;13.40;99.90;;;;;;5013825;28;20084;-51
2021/06/03 03:43:19;;;;;;;73.72;67.70;;;13.40;99.90;;;;;;5013525;28;20542;-52
2021/06/03 03:45:46;;;;;;;75.07;69.25;;;13.40;99.90;;;;;;5013726;28;20088;-50
2021/06/03 03:48:13;;;;;;;69.45;63.95;;;13.50;99.90;;;;;;5013567;28;20433;-49
2021/06/03 03:50:41;;;;;;;74.22;68.13;;;13.50;99.90;;;;;;5013558;28;20028;-51
2021/06/03 03:53:08;;;;;;;71.97;66.10;;;13.50;99.90;;;;;;5013571;28;20026;-53
2021/06/03 03:55:36;;;;;;;69.75;63.75;;;13.60;99.90;;;;;;5013363;28;20065;-50
2021/06/03 03:58:04;;;;;;;74.25;68.35;;;13.50;99.90;;;;;;5013271;28;20475;-49
2021/06/03 04:00:34;;;;;;;68.00;62.58;;;13.40;99.90;;;;;;5013486;28;20422;-49
2021/06/03 04:03:03;;;;;;;67.57;61.70;;;13.30;99.90;;;;;;5013387;28;20117;-50
2021/06/03 04:05:31;;;;;;;69.47;63.70;;;13.30;99.90;;;;;;5013271;28;20113;-52
2021/06/03 04:07:58;;;;;;;78.95;72.95;;;13.30;99.90;;;;;;5013518;28;20102;-53
2021/06/03 04:10:25;;;;;;;80.72;74.53;;;13.30;99.90;;;;;;5013391;28;20387;-48
2021/06/03 04:12:53;;;;;;;75.40;69.32;;;13.40;99.90;;;;;;5013211;28;20032;-48
2021/06/03 04:15:20;;;;;;;72.53;66.28;;;13.40;99.90;;;;;;5013346;28;20439;-51
2021/06/03 04:17:48;;;;;;;72.30;66.45;;;13.40;99.90;;;;;;5013126;28;20118;-51
2021/06/03 04:20:19;;;;;;;83.47;77.03;;;13.40;99.90;;;;;;5013384;28;20018;-48
2021/06/03 04:22:47;;;;;;;80.43;74.13;;;13.40;99.90;;;;;;5013151;28;20034;-51
2021/06/03 04:25:15;;;;;;;79.40;72.95;;;13.40;99.90;;;;;;5012952;28;20506;-51
2021/06/03 04:27:43;;;;;;;72.93;67.05;;;13.40;99.90;;;;;;5013122;28;20153;-48
2021/06/03 04:30:14;;;;;;;73.75;68.07;;;13.40;99.90;;;;;;5013091;28;20024;-53
2021/06/03 04:32:42;;;;;;;71.78;66.18;;;13.40;99.90;;;;;;5013143;28;20034;-49
2021/06/03 04:35:10;;;;;;;72.03;66.53;;;13.40;99.90;;;;;;4995912;28;20022;-50
2021/06/03 04:37:38;;;;;;;73.95;67.38;;;13.40;99.90;;;;;;5013010;28;20105;-49
2021/06/03 04:40:07;;;;;;;79.50;73.03;;;13.40;99.90;;;;;;5012988;28;20021;-50
2021/06/03 04:42:34;;;;;;;79.47;72.82;;;13.40;99.90;;;;;;5015934;28;20022;-53
2021/06/03 04:45:03;;;;;;;85.20;78.22;;;13.40;99.90;;;;;;5016793;28;20525;-50
2021/06/03 04:47:30;;;;;;;78.43;71.22;;;13.50;99.90;;;;;;5016758;28;20431;-51
2021/06/03 04:49:58;;;;;;;82.68;75.55;;;13.50;99.90;;;;;;5016882;28;20014;-51
2021/06/03 04:52:26;;;;;;;76.15;69.68;;;13.50;99.90;;;;;;5016818;28;20048;-46
2021/06/03 04:55:06;;;;;;;78.00;71.10;;;13.40;99.90;;;;;;5016771;28;20442;-50
2021/06/03 04:57:33;;;;;;;75.80;69.30;;;13.30;99.90;;;;;;5016969;28;20426;-50
2021/06/03 05:00:01;;;;;;;76.68;69.80;;;13.30;99.90;;;;;;5016546;28;20050;-50
2021/06/03 05:02:28;;;;;;;73.15;67.10;;;13.30;99.90;;;;;;5016770;28;20029;-47
2021/06/03 05:04:56;;;;;;;72.20;66.18;;;13.30;99.90;;;;;;5016465;28;20517;-48
2021/06/03 05:07:23;;;;;;;70.85;64.65;;;13.30;99.90;;;;;;5016530;28;20426;-51
2021/06/03 05:09:50;;;;;;;73.43;66.70;;;13.20;99.90;;;;;;5016548;28;20022;-51
2021/06/03 05:12:18;;;;;;;71.68;65.05;;;13.20;99.90;;;;;;5016531;28;20014;-51
2021/06/03 05:14:45;;;;;;;70.93;64.53;;;13.20;99.90;;;;;;5016577;28;20036;-51
2021/06/03 05:17:13;;;;;;;76.22;69.43;;;13.20;99.90;;;;;;5016506;28;20022;-51
2021/06/03 05:19:41;;;;;;;70.53;64.00;;;13.10;99.90;;;;;;5016243;28;20550;-50
2021/06/03 05:22:09;;;;;;;70.45;64.05;;;13.10;99.90;;;;;;5016206;28;20471;-51
2021/06/03 05:24:36;;;;;;;72.35;65.95;;;13.00;99.90;;;;;;5016303;28;20022;-50
2021/06/03 05:27:06;;;;;;;75.43;69.05;;;12.90;99.90;;;;;;5016139;28;20026;-45
2021/06/03 05:29:34;;;;;;;85.13;78.40;;;13.00;99.90;;;;;;5016259;28;20075;-53
2021/06/03 05:32:02;;;;;;;83.05;76.00;;;12.90;99.90;;;;;;5016235;28;20122;-51
2021/06/03 05:34:29;;;;;;;78.55;71.78;;;12.90;99.90;;;;;;5016099;28;20037;-48
2021/06/03 05:36:58;;;;;;;76.13;69.43;;;12.90;99.90;;;;;;5016058;28;20029;-48
2021/06/03 05:39:25;;;;;;;79.63;72.75;;;12.90;99.90;;;;;;5016086;28;20026;-49
2021/06/03 05:41:53;;;;;;;80.68;73.72;;;12.90;99.90;;;;;;5015864;28;20152;-52
2021/06/03 05:44:20;;;;;;;78.30;71.55;;;12.90;99.90;;;;;;5015664;28;20538;-46
2021/06/03 05:46:47;;;;;;;78.68;72.03;;;12.90;99.90;;;;;;5016126;28;20033;-49
2021/06/03 05:49:15;;;;;;;80.25;73.40;;;12.90;99.90;;;;;;5015938;28;20037;-51
2021/06/03 05:51:43;;;;;;;78.07;71.43;;;12.90;99.90;;;;;;5015433;28;20026;-51
2021/06/03 05:54:11;;;;;;;81.57;74.65;;;12.90;99.90;;;;;;5015750;28;20033;-50
2021/06/03 05:56:39;;;;;;;79.38;72.55;;;12.80;99.90;;;;;;5015895;28;20077;-51
2021/06/03 05:59:08;;;;;;;79.20;72.50;;;12.90;99.90;;;;;;5015451;28;20042;-50
2021/06/03 06:01:36;;;;;;;78.80;71.70;;;12.80;99.90;;;;;;4998042;28;20387;-53
2021/06/03 06:06:32;;;;;;;76.57;69.78;;;12.80;99.90;;;;;;5015406;28;20030;-49
2021/06/03 06:09:04;;;;;;;78.32;70.88;;;12.80;99.90;;;;;;5015482;28;20024;-47
2021/06/03 06:11:37;;;;;;;75.15;68.30;;;12.90;99.90;;;;;;5015450;28;20390;-46
2021/06/03 06:14:06;;;;;;;76.93;70.28;;;12.90;99.90;;;;;;5015228;28;20018;-49
2021/06/03 06:16:33;;;;;;;71.22;64.43;;;12.90;99.90;;;;;;5015096;28;20030;-47
2021/06/03 06:19:01;;;;;;;69.35;63.05;;;12.80;99.90;;;;;;5015136;28;20022;-49
2021/06/03 06:21:29;;;;;;;68.18;62.13;;;12.80;99.90;;;;;;5015027;28;20026;-48
2021/06/03 06:23:58;;;;;;;64.65;58.35;;;12.80;99.90;;;;;;5014845;28;20034;-49
2021/06/03 06:26:26;;;;;;;67.13;60.95;;;12.80;99.90;;;;;;5014868;28;20052;-51
2021/06/03 06:28:55;;;;;;;63.42;57.80;;;12.90;99.90;;;;;;5014874;28;20022;-47
2021/06/03 06:31:24;;;;;;;61.38;55.97;;;12.80;99.90;;;;;;5015019;28;20018;-49
2021/06/03 06:33:51;;;;;;;65.10;59.70;;;12.80;99.90;;;;;;5015286;28;20022;-48
2021/06/03 06:36:19;;;;;;;65.07;59.38;;;12.80;99.90;;;;;;5014907;28;20033;-50
2021/06/03 06:38:46;;;;;;;64.90;59.10;;;12.80;99.90;;;;;;5014818;28;20025;-49
2021/06/03 06:41:13;;;;;;;65.53;59.53;;;12.80;99.90;;;;;;5015035;28;20105;-49
2021/06/03 06:43:41;;;;;;;65.43;59.55;;;12.80;99.90;;;;;;5014967;28;20072;-48
2021/06/03 06:46:08;;;;;;;70.90;64.65;;;12.80;99.90;;;;;;4997261;28;20070;-50
2021/06/03 06:48:37;;;;;;;70.55;64.22;;;12.80;99.90;;;;;;5014676;28;20021;-47
2021/06/03 06:51:04;;;;;;;72.72;66.32;;;12.80;99.90;;;;;;5014515;28;20036;-48
2021/06/03 06:53:31;;;;;;;68.25;62.00;;;12.80;99.90;;;;;;5014430;28;20132;-48
2021/06/03 06:55:59;;;;;;;70.95;64.57;;;12.80;99.90;;;;;;5014330;28;20030;-48
2021/06/03 06:58:27;;;;;;;75.30;68.70;;;12.80;99.90;;;;;;5014254;28;20122;-45
2021/06/03 07:00:55;;;;;;;73.32;66.90;;;12.80;99.90;;;;;;5014216;28;20554;-50
2021/06/03 07:03:23;;;;;;;74.60;68.30;;;12.80;99.90;;;;;;5013795;28;20037;-49
2021/06/03 07:05:50;;;;;;;66.70;60.72;;;12.80;99.90;;;;;;5014099;28;20467;-51
2021/06/03 07:08:18;;;;;;;65.18;58.75;;;12.80;99.90;;;;;;5014455;28;20079;-50
2021/06/03 07:10:45;;;;;;;65.60;59.63;;;12.80;99.90;;;;;;5014161;28;20486;-52
2021/06/03 07:13:13;;;;;;;66.95;60.78;;;12.80;99.90;;;;;;5014157;28;20065;-49
2021/06/03 07:15:40;;;;;;;69.20;62.97;;;12.80;99.90;;;;;;5013910;28;20080;-45
2021/06/03 07:18:08;;;;;;;71.45;65.25;;;12.80;99.90;;;;;;5013929;28;20026;-48
2021/06/03 07:20:36;;;;;;;72.00;65.47;;;12.80;99.90;;;;;;5013724;28;20380;-48
2021/06/03 07:23:04;;;;;;;70.75;64.40;;;12.80;99.90;;;;;;5013763;28;20030;-49
2021/06/03 07:25:34;;;;;;;69.00;62.65;;;12.80;99.90;;;;;;5013796;28;20038;-51
2021/06/03 07:28:03;;;;;;;64.80;58.70;;;12.80;99.90;;;;;;5014187;28;20033;-52
2021/06/03 07:30:30;;;;;;;66.82;60.40;;;12.80;99.90;;;;;;4996519;28;20177;-55
2021/06/03 07:32:58;;;;;;;70.80;64.35;;;12.80;99.90;;;;;;5014114;28;20467;-52
2021/06/03 07:35:26;;;;;;;66.47;60.17;;;12.80;99.90;;;;;;5013925;28;20513;-49
2021/06/03 07:37:54;;;;;;;68.45;62.25;;;12.80;99.90;;;;;;5014011;28;20024;-50
2021/06/03 07:40:25;;;;;;;70.93;64.20;;;12.80;99.90;;;;;;5013787;28;20030;-50
2021/06/03 07:42:52;;;;;;;;;;;12.80;99.90;;;;;;5014236;28;20061;-54
2021/06/03 07:45:23;;;;;;;65.18;59.03;;;12.80;99.90;;;;;;5014151;28;19909;-50
2021/06/03 07:47:52;;;;;;;65.43;58.85;;;12.80;99.90;;;;;;5013991;28;20113;-50
2021/06/03 07:50:20;;;;;;;64.47;58.30;;;12.90;99.90;;;;;;5013659;28;20080;-54
2021/06/03 07:52:48;;;;;;;64.15;58.33;;;12.90;99.90;;;;;;5013681;28;20026;-49
2021/06/03 07:55:17;;;;;;;75.82;69.47;;;12.90;99.90;;;;;;5013666;28;20018;-53
2021/06/03 07:57:48;;;;;;;75.75;69.45;;;12.90;99.90;;;;;;5013434;28;20022;-54
2021/06/03 08:00:15;;;;;;;;;;;12.90;99.90;;;;;;5013845;28;20050;-55
2021/06/03 08:02:45;;;;;;;61.97;56.08;;;12.90;99.90;;;;;;5013555;28;19912;-52
2021/06/03 08:05:14;;;;;;;67.72;61.55;;;12.90;99.90;;;;;;5013563;28;20041;-50
2021/06/03 08:07:42;;;;;;;69.40;63.05;;;13.00;99.90;;;;;;5013581;28;20499;-50
2021/06/03 08:10:13;;;;;;;70.78;64.63;;;12.90;99.90;;;;;;5013467;28;20021;-53
2021/06/03 08:12:41;;;;;;;66.40;60.50;;;13.00;99.90;;;;;;5013698;28;20022;-53
2021/06/03 08:15:10;;;;;;;66.28;60.33;;;13.00;99.90;;;;;;5013221;28;20034;-51
2021/06/03 08:17:38;;;;;;;64.38;58.45;;;12.90;99.90;;;;;;5013382;28;20037;-51
2021/06/03 08:20:13;;;;;;;68.03;61.97;;;13.00;99.90;;;;;;5013254;28;20029;-54
2021/06/03 08:22:41;;;;;;;67.30;61.33;;;13.00;99.90;;;;;;5013268;28;20368;-52
2021/06/03 08:25:11;;;;;;;69.05;62.95;;;12.90;99.90;;;;;;5012095;28;20576;-56
2021/06/03 08:27:39;;;;;;;66.53;60.13;;;13.00;99.90;;;;;;5013260;28;20121;-54
2021/06/03 08:30:09;;;;;;;67.30;61.20;;;13.00;99.90;;;;;;5013595;28;20067;-52
2021/06/03 08:32:37;;;;;;;67.13;60.83;;;12.90;99.90;;;;;;5013320;28;20084;-51
2021/06/03 08:35:05;;;;;;;70.57;63.78;;;12.90;99.90;;;;;;5013016;28;20442;-50
2021/06/03 08:37:32;;;;;;;67.65;61.78;;;13.00;99.90;;;;;;5013071;28;20567;-51
2021/06/03 08:39:59;;;;;;;71.53;65.22;;;13.00;99.90;;;;;;5013213;28;20049;-53
2021/06/03 08:42:27;;;;;;;70.45;64.15;;;13.00;99.90;;;;;;5013079;28;20036;-50
2021/06/03 08:44:54;;;;;;;72.05;65.75;;;13.00;99.90;;;;;;5013146;28;20026;-52
2021/06/03 08:47:22;;;;;;;67.65;61.65;;;13.00;99.90;;;;;;5013092;28;20022;-56
2021/06/03 08:49:49;;;;;;;67.47;61.53;;;13.00;99.90;;;;;;5013180;28;20033;-53
2021/06/03 08:52:17;;;;;;;64.03;58.08;;;13.00;99.90;;;;;;5013167;28;20025;-53
2021/06/03 08:54:45;;;;;;;62.55;56.63;;;13.00;99.90;;;;;;5013124;28;20076;-51
2021/06/03 08:57:13;;;;;;;67.25;60.72;;;13.00;99.90;;;;;;5012918;28;20030;-54
2021/06/03 08:59:40;;;;;;;67.50;60.95;;;13.10;99.90;;;;;;5012702;28;20050;-51
2021/06/03 09:02:08;;;;;;;62.67;56.58;;;13.10;99.90;;;;;;5012899;28;20034;-54
2021/06/03 09:04:35;;;;;;;64.93;58.33;;;13.10;99.90;;;;;;5012559;28;20030;-52
2021/06/03 09:07:03;;;;;;;65.78;59.20;;;13.10;99.90;;;;;;5012730;28;20068;-51
2021/06/03 09:09:31;;;;;;;68.60;62.00;;;13.10;99.90;;;;;;5012783;28;20391;-49
2021/06/03 09:12:15;;;;;;;69.03;62.10;;;13.10;99.90;;;;;;5012888;28;20018;-51
2021/06/03 09:14:43;;;;;;;72.88;66.05;;;13.10;99.90;;;;;;5013023;28;20026;-55
2021/06/03 09:17:12;;;;;;;74.75;67.78;;;13.00;99.90;;;;;;5013092;28;20100;-51
2021/06/03 09:19:54;;;;;;;73.03;66.07;;;13.10;99.90;;;;;;5012634;28;20038;-51
2021/06/03 09:22:38;;;;;;;66.38;60.05;;;13.10;99.90;;;;;;5012735;28;20483;-51
2021/06/03 09:25:29;;;;;;;68.43;62.08;;;13.10;99.90;;;;;;5012865;28;20022;-51
2021/06/03 09:28:17;;;;;;;67.50;61.17;;;13.00;99.90;;;;;;5014512;28;20445;-50
2021/06/03 09:30:59;;;;;;;68.80;62.35;;;13.00;99.90;;;;;;5016662;28;20525;-52
2021/06/03 09:33:43;;;;;;;69.18;62.47;;;13.00;99.90;;;;;;5016377;28;20053;-49
2021/06/03 09:36:19;;;;;;;70.28;63.33;;;13.00;99.90;;;;;;5016446;28;20028;-53
2021/06/03 09:38:54;;;;;;;67.78;61.45;;;13.00;99.90;;;;;;5016202;28;20080;-52
2021/06/03 09:41:22;;;;;;;69.10;62.42;;;13.00;99.90;;;;;;4998569;28;20030;-50
2021/06/03 09:43:52;;;;;;;70.13;62.97;;;13.00;99.90;;;;;;5016128;28;20033;-49
2021/06/03 09:46:20;;;;;;;83.45;76.05;;;13.00;99.90;;;;;;5016242;28;20383;-54
2021/06/03 09:48:49;;;;;;;85.18;78.07;;;13.00;99.90;;;;;;4998398;28;20061;-50
2021/06/03 09:51:44;;;;;;;85.05;78.07;;;13.00;99.90;;;;;;5016193;28;20029;-50
2021/06/03 09:54:19;;;;;;;79.40;72.38;;;13.00;99.90;;;;;;5006664;28;20033;-52
2021/06/03 09:56:50;;;;;;;72.50;65.65;;;13.00;99.90;;;;;;5015843;28;20037;-49
2021/06/03 09:59:17;;;;;;;;;;;13.00;99.90;;;;;;5016322;28;20089;-51
2021/06/03 10:01:51;;;;;;;67.60;61.17;;;13.00;99.90;;;;;;5015669;28;19913;-50
2021/06/03 10:04:43;;;;;;;79.07;71.95;;;13.00;99.90;;;;;;5015847;28;20028;-52
2021/06/03 10:07:31;;;;;;;81.03;73.68;;;13.00;99.90;;;;;;5015637;28;20042;-52
2021/06/03 10:10:05;;;;;;;72.88;65.72;;;13.00;99.90;;;;;;5015615;28;20029;-50
2021/06/03 10:12:41;;;;;;;69.80;63.28;;;13.00;99.90;;;;;;5015616;28;20034;-53
2021/06/03 10:15:13;;;;;;;77.00;69.90;;;12.90;99.90;;;;;;5015557;28;20017;-52
2021/06/03 10:17:52;;;;;;;72.47;65.30;;;12.90;99.90;;;;;;5015525;28;20387;-52
2021/06/03 10:20:38;;;;;;;71.45;64.45;;;12.90;99.90;;;;;;5015312;28;20022;-50
2021/06/03 10:23:29;;;;;;;73.47;66.40;;;12.90;99.90;;;;;;5015372;28;20093;-53
2021/06/03 10:26:05;;;;;;;70.63;63.88;;;12.90;99.90;;;;;;5015413;28;20026;-54
2021/06/03 10:28:33;;;;;;;67.75;61.05;;;12.80;99.90;;;;;;5015105;28;20417;-49
2021/06/03 10:31:12;;;;;;;66.70;60.22;;;12.80;99.90;;;;;;5015181;28;20026;-50
2021/06/03 10:33:41;;;;;;;65.80;59.33;;;12.90;99.90;;;;;;4998833;28;20101;-53
2021/06/03 10:36:12;;;;;;;67.85;61.08;;;12.90;99.90;;;;;;5015033;28;20411;-53
2021/06/03 10:38:40;;;;;;;74.70;67.97;;;12.90;99.90;;;;;;5014978;28;20076;-52
2021/06/03 10:41:11;;;;;;;66.97;60.63;;;12.80;99.90;;;;;;5015012;28;20033;-54
2021/06/03 10:43:39;;;;;;;71.50;64.90;;;12.90;99.90;;;;;;5014794;28;20399;-51
2021/06/03 10:46:07;;;;;;;71.30;64.28;;;12.90;99.90;;;;;;5014809;28;20034;-54
2021/06/03 10:48:35;;;;;;;73.05;66.03;;;12.90;99.90;;;;;;5015085;28;20165;-50
2021/06/03 10:51:08;;;;;;;71.70;64.65;;;12.80;99.90;;;;;;5014820;28;20013;-53
2021/06/03 10:53:47;;;;;;;74.65;67.57;;;12.90;99.90;;;;;;5014775;28;20014;-50
2021/06/03 10:56:19;;;;;;;70.43;63.83;;;12.90;99.90;;;;;;5014628;28;20176;-51
2021/06/03 10:58:47;;;;;;;74.80;67.82;;;12.90;99.90;;;;;;5014208;28;20056;-51
2021/06/03 11:01:17;;;;;;;78.63;71.20;;;12.80;99.90;;;;;;5014592;28;20037;-52
2021/06/03 11:03:51;;;;;;;78.13;70.53;;;12.80;99.90;;;;;;5014327;28;20394;-49
2021/06/03 11:06:19;;;;;;;81.70;73.95;;;12.90;99.90;;;;;;5007081;28;20437;-51
2021/06/03 11:08:57;;;;;;;82.93;74.55;;;12.80;99.90;;;;;;5014764;28;20022;-51
2021/06/03 11:11:36;;;;;;;80.15;72.35;;;12.80;99.90;;;;;;5014572;28;20434;-51
2021/06/03 11:14:09;;;;;;;78.57;70.93;;;12.80;99.90;;;;;;5014581;28;20018;-51
2021/06/03 11:16:38;;;;;;;78.35;71.03;;;12.80;99.90;;;;;;5014533;28;20025;-53
2021/06/03 11:19:16;;;;;;;80.97;73.10;;;12.80;99.90;;;;;;5014260;28;20037;-51
2021/06/03 11:21:45;;;;;;;78.43;71.03;;;12.90;99.90;;;;;;5014247;28;20022;-51
2021/06/03 11:24:37;;;;;;;79.22;71.93;;;12.90;99.90;;;;;;5014035;28;20022;-50
2021/06/03 11:27:14;;;;;;;84.63;76.55;;;12.90;99.90;;;;;;5014288;28;20502;-50
2021/06/03 11:29:56;;;;;;;86.95;78.47;;;12.90;99.90;;;;;;5014367;28;20545;-49
2021/06/03 11:32:28;;;;;;;89.18;80.60;;;12.90;99.90;;;;;;4997275;28;20026;-52
2021/06/03 11:34:59;;;;;;;87.45;79.07;;;12.80;99.90;;;;;;5014253;28;20509;-49
2021/06/03 11:37:39;;;;;;;88.75;80.20;;;12.90;99.90;;;;;;5013981;28;20022;-53
2021/06/03 11:40:07;;;;;;;85.95;77.75;;;12.80;99.90;;;;;;5013847;28;20030;-56
2021/06/03 11:42:39;;;;;;;87.93;79.68;;;12.80;99.90;;;;;;5013897;28;20018;-49
2021/06/03 11:45:12;;;;;;;90.20;81.95;;;12.80;99.90;;;;;;5013668;28;20451;-50
2021/06/03 11:47:40;;;;;;;88.20;80.28;;;12.90;99.90;;;;;;5013717;28;20548;-57
2021/06/03 11:50:27;;;;;;;85.38;77.38;;;12.90;99.90;;;;;;5013081;28;20030;-50
2021/06/03 11:52:55;;;;;;;82.05;74.50;;;12.80;99.90;;;;;;5013375;28;20123;-55
2021/06/03 11:55:50;;;;;;;89.28;80.95;;;12.80;99.90;;;;;;5013526;28;20030;-50
2021/06/03 11:58:33;;;;;;;89.63;81.22;;;12.80;99.90;;;;;;5013413;28;20395;-51
2021/06/03 12:01:08;;;;;;;91.75;83.03;;;12.80;99.90;;;;;;5013524;28;20029;-50
2021/06/03 12:04:08;;;;;;;89.45;80.78;;;12.80;99.90;;;;;;5013608;28;20034;-52
2021/06/03 12:06:39;;;;;;;90.00;81.32;;;12.70;99.90;;;;;;5013421;28;20110;-52
2021/06/03 12:09:18;;;;;;;84.22;75.82;;;12.70;99.90;;;;;;5013471;28;20034;-51
2021/06/03 12:11:56;;;;;;;88.47;79.50;;;12.60;99.90;;;;;;5013465;28;20033;-51
2021/06/03 12:14:43;;;;;;;91.78;82.53;;;12.60;99.90;;;;;;5013390;28;20500;-50
2021/06/03 12:17:12;;;;;;;92.00;82.45;;;12.60;99.90;;;;;;5013366;28;20117;-49
2021/06/03 12:19:48;;;;;;;90.53;81.30;;;12.50;99.90;;;;;;5013551;28;20057;-56
2021/06/03 12:22:19;;;;;;;96.40;86.57;;;12.50;99.90;;;;;;5013534;28;20567;-52
2021/06/03 12:24:51;;;;;;;98.60;88.63;;;12.50;99.90;;;;;;5013228;28;20026;-51
2021/06/03 12:27:28;;;;;;;99.88;89.68;;;12.50;99.90;;;;;;5013511;28;20057;-53
2021/06/03 12:30:12;;;;;;;98.47;87.90;;;12.50;99.90;;;;;;5013205;28;20026;-50
2021/06/03 12:32:40;;;;;;;96.63;86.70;;;12.50;99.90;;;;;;5013315;28;20022;-53
2021/06/03 12:35:08;;;;;;;98.13;88.25;;;12.40;99.90;;;;;;5013116;28;20022;-53
2021/06/03 12:37:37;;;;;;;105.22;94.25;;;12.40;99.90;;;;;;5013279;28;20037;-52
2021/06/03 12:40:19;;;;;;;101.85;91.18;;;12.40;99.90;;;;;;5013438;28;20126;-52
2021/06/03 12:42:47;;;;;;;100.45;90.25;;;12.40;99.90;;;;;;5013425;28;20033;-53
2021/06/03 12:45:15;;;;;;;102.30;91.45;;;12.40;99.90;;;;;;5013078;28;20057;-55
2021/06/03 12:47:42;;;;;;;104.07;93.38;;;12.40;99.90;;;;;;5013277;28;20034;-54